sensor_id;sensor_type;location;lat;lon;timestamp;pressure;altitude;pressure_sealevel;temperature;humidity
7888;BME280;3989;48.810;9.208;2023-03-14T00:01:54;97148.31;;;9.25;100.00
7888;BME280;3989;48.810;9.208;2023-03-14T00:04:21;97181.09;;;9.26;100.00
7888;BME280;3989;48.810;9.208;2023-03-14T00:06:47;97142.66;;;9.02;100.00
7888;BME280;3989;48.810;9.208;2023-03-14T00:09:15;97130.19;;;8.96;100.00
7888;BME280;3989;48.810;9.208;2023-03-14T00:11:41;97118.41;;;8.66;100.00
7888;BME280;3989;48.810;9.208;2023-03-14T00:14:08;97186.84;;;9.23;100.00
7888;BME280;3989;48.810;9.208;2023-03-14T00:16:36;97117.75;;;8.77;100.00
7888;BME280;3989;48.810;9.208;2023-03-14T00:19:03;97154.13;;;9.03;100.00
7888;BME280;3989;48.810;9.208;2023-03-14T00:21:29;97169.84;;;9.24;100.00
7888;BME280;3989;48.810;9.208;2023-03-14T00:23:56;97146.50;;;9.19;100.00
7888;BME280;3989;48.810;9.208;2023-03-14T00:26:23;97103.59;;;8.89;100.00
7888;BME280;3989;48.810;9.208;2023-03-14T00:28:51;97142.00;;;9.20;100.00
7888;BME280;3989;48.810;9.208;2023-03-14T00:31:18;97134.44;;;9.17;100.00
7888;BME280;3989;48.810;9.208;2023-03-14T00:33:47;97155.09;;;9.15;100.00
7888;BME280;3989;48.810;9.208;2023-03-14T00:36:15;97161.91;;;9.11;100.00
7888;BME280;3989;48.810;9.208;2023-03-14T00:38:44;97131.44;;;8.93;100.00
7888;BME280;3989;48.810;9.208;2023-03-14T00:41:13;97180.31;;;9.12;100.00
7888;BME280;3989;48.810;9.208;2023-03-14T00:43:40;97120.22;;;8.85;100.00
7888;BME280;3989;48.810;9.208;2023-03-14T00:46:08;97158.00;;;9.07;100.00
7888;BME280;3989;48.810;9.208;2023-03-14T00:48:35;97139.00;;;8.96;100.00
7888;BME280;3989;48.810;9.208;2023-03-14T00:51:03;97081.78;;;8.61;100.00
7888;BME280;3989;48.810;9.208;2023-03-14T00:53:30;97167.22;;;9.11;100.00
7888;BME280;3989;48.810;9.208;2023-03-14T00:56:02;97165.16;;;9.06;100.00
7888;BME280;3989;48.810;9.208;2023-03-14T00:58:29;97158.03;;;9.00;100.00
7888;BME280;3989;48.810;9.208;2023-03-14T01:00:56;97139.63;;;8.85;100.00
7888;BME280;3989;48.810;9.208;2023-03-14T01:03:22;97144.16;;;8.85;100.00
7888;BME280;3989;48.810;9.208;2023-03-14T01:05:49;97184.03;;;9.05;100.00
7888;BME280;3989;48.810;9.208;2023-03-14T01:08:17;97071.41;;;8.33;100.00
7888;BME280;3989;48.810;9.208;2023-03-14T01:10:43;97047.66;;;8.19;100.00
7888;BME280;3989;48.810;9.208;2023-03-14T01:13:10;97145.78;;;8.79;100.00
7888;BME280;3989;48.810;9.208;2023-03-14T01:15:37;97151.09;;;8.86;100.00
7888;BME280;3989;48.810;9.208;2023-03-14T01:18:04;97198.31;;;9.17;100.00
7888;BME280;3989;48.810;9.208;2023-03-14T01:20:31;97081.81;;;8.35;100.00
7888;BME280;3989;48.810;9.208;2023-03-14T01:22:57;97186.00;;;9.22;100.00
7888;BME280;3989;48.810;9.208;2023-03-14T01:25:25;97169.22;;;9.22;100.00
7888;BME280;3989;48.810;9.208;2023-03-14T01:27:54;97080.34;;;8.65;100.00
7888;BME280;3989;48.810;9.208;2023-03-14T01:30:21;97131.38;;;9.20;100.00
7888;BME280;3989;48.810;9.208;2023-03-14T01:32:48;97103.56;;;9.03;100.00
7888;BME280;3989;48.810;9.208;2023-03-14T01:35:14;97118.06;;;9.20;100.00
7888;BME280;3989;48.810;9.208;2023-03-14T01:37:41;97106.44;;;9.08;100.00
7888;BME280;3989;48.810;9.208;2023-03-14T01:40:10;97113.34;;;9.15;100.00
7888;BME280;3989;48.810;9.208;2023-03-14T01:42:46;97051.91;;;8.72;100.00
7888;BME280;3989;48.810;9.208;2023-03-14T01:48:18;97063.09;;;8.87;100.00
7888;BME280;3989;48.810;9.208;2023-03-14T01:50:45;97048.81;;;8.82;100.00
7888;BME280;3989;48.810;9.208;2023-03-14T01:53:12;97047.38;;;8.79;100.00
7888;BME280;3989;48.810;9.208;2023-03-14T01:55:38;97079.50;;;8.84;100.00
7888;BME280;3989;48.810;9.208;2023-03-14T01:58:07;97088.03;;;8.93;100.00
7888;BME280;3989;48.810;9.208;2023-03-14T02:00:34;97064.78;;;8.82;100.00
7888;BME280;3989;48.810;9.208;2023-03-14T02:03:05;97076.00;;;8.90;100.00
7888;BME280;3989;48.810;9.208;2023-03-14T02:05:35;97079.06;;;8.87;100.00
7888;BME280;3989;48.810;9.208;2023-03-14T02:08:07;97010.88;;;8.42;100.00
7888;BME280;3989;48.810;9.208;2023-03-14T02:10:37;96866.72;;;7.56;100.00
7888;BME280;3989;48.810;9.208;2023-03-14T02:13:06;97000.03;;;8.30;100.00
7888;BME280;3989;48.810;9.208;2023-03-14T02:15:33;97080.31;;;8.78;100.00
7888;BME280;3989;48.810;9.208;2023-03-14T02:18:02;97026.19;;;8.47;100.00
7888;BME280;3989;48.810;9.208;2023-03-14T02:20:33;97052.16;;;8.51;100.00
7888;BME280;3989;48.810;9.208;2023-03-14T02:23:04;97091.00;;;8.65;100.00
7888;BME280;3989;48.810;9.208;2023-03-14T02:25:39;97058.25;;;8.65;100.00
7888;BME280;3989;48.810;9.208;2023-03-14T02:28:09;96959.00;;;7.93;100.00
7888;BME280;3989;48.810;9.208;2023-03-14T02:30:35;96985.72;;;8.25;100.00
7888;BME280;3989;48.810;9.208;2023-03-14T02:33:04;97011.88;;;8.48;100.00
7888;BME280;3989;48.810;9.208;2023-03-14T02:35:35;96990.03;;;8.39;100.00
7888;BME280;3989;48.810;9.208;2023-03-14T02:38:08;97038.00;;;8.64;100.00
7888;BME280;3989;48.810;9.208;2023-03-14T02:40:36;97017.16;;;8.54;100.00
7888;BME280;3989;48.810;9.208;2023-03-14T02:43:03;97013.69;;;8.54;100.00
7888;BME280;3989;48.810;9.208;2023-03-14T02:45:40;97041.88;;;8.68;100.00
7888;BME280;3989;48.810;9.208;2023-03-14T02:48:11;96941.81;;;8.09;100.00
7888;BME280;3989;48.810;9.208;2023-03-14T02:50:39;97020.03;;;8.66;100.00
7888;BME280;3989;48.810;9.208;2023-03-14T02:53:05;97027.19;;;8.65;100.00
7888;BME280;3989;48.810;9.208;2023-03-14T02:55:32;97023.88;;;8.63;100.00
7888;BME280;3989;48.810;9.208;2023-03-14T02:57:59;97006.31;;;8.62;100.00
7888;BME280;3989;48.810;9.208;2023-03-14T03:00:25;97036.78;;;8.60;100.00
7888;BME280;3989;48.810;9.208;2023-03-14T03:02:53;97004.28;;;8.58;100.00
7888;BME280;3989;48.810;9.208;2023-03-14T03:05:19;96972.25;;;8.39;100.00
7888;BME280;3989;48.810;9.208;2023-03-14T03:07:46;96942.38;;;8.24;100.00
7888;BME280;3989;48.810;9.208;2023-03-14T03:10:12;96991.59;;;8.53;100.00
7888;BME280;3989;48.810;9.208;2023-03-14T03:12:39;96968.13;;;8.37;100.00
7888;BME280;3989;48.810;9.208;2023-03-14T03:15:06;96941.19;;;8.20;100.00
7888;BME280;3989;48.810;9.208;2023-03-14T03:17:33;96960.38;;;8.35;100.00
7888;BME280;3989;48.810;9.208;2023-03-14T03:20:01;96959.56;;;8.35;100.00
7888;BME280;3989;48.810;9.208;2023-03-14T03:22:28;96969.34;;;8.41;100.00
7888;BME280;3989;48.810;9.208;2023-03-14T03:24:55;96966.09;;;8.39;100.00
7888;BME280;3989;48.810;9.208;2023-03-14T03:27:21;96977.16;;;8.36;100.00
7888;BME280;3989;48.810;9.208;2023-03-14T03:29:48;96977.56;;;8.33;100.00
7888;BME280;3989;48.810;9.208;2023-03-14T03:32:15;96947.31;;;8.14;100.00
7888;BME280;3989;48.810;9.208;2023-03-14T03:34:41;96933.25;;;8.07;100.00
7888;BME280;3989;48.810;9.208;2023-03-14T03:37:09;96959.78;;;8.27;100.00
7888;BME280;3989;48.810;9.208;2023-03-14T03:39:35;96951.19;;;8.25;100.00
7888;BME280;3989;48.810;9.208;2023-03-14T03:42:02;96956.31;;;8.20;100.00
7888;BME280;3989;48.810;9.208;2023-03-14T03:44:28;96949.78;;;8.16;100.00
7888;BME280;3989;48.810;9.208;2023-03-14T03:46:55;96923.25;;;7.89;100.00
7888;BME280;3989;48.810;9.208;2023-03-14T03:49:22;96897.94;;;7.80;100.00
7888;BME280;3989;48.810;9.208;2023-03-14T03:51:48;96938.16;;;7.97;100.00
7888;BME280;3989;48.810;9.208;2023-03-14T03:54:16;96904.47;;;7.84;100.00
7888;BME280;3989;48.810;9.208;2023-03-14T03:56:43;96937.53;;;8.02;100.00
7888;BME280;3989;48.810;9.208;2023-03-14T03:59:09;96939.00;;;7.98;100.00
7888;BME280;3989;48.810;9.208;2023-03-14T04:01:36;96941.44;;;7.92;100.00
7888;BME280;3989;48.810;9.208;2023-03-14T04:04:02;96909.19;;;7.69;100.00
7888;BME280;3989;48.810;9.208;2023-03-14T04:06:29;96935.31;;;7.85;100.00
7888;BME280;3989;48.810;9.208;2023-03-14T04:08:56;96916.13;;;7.57;100.00
7888;BME280;3989;48.810;9.208;2023-03-14T04:11:24;96938.38;;;7.76;100.00
7888;BME280;3989;48.810;9.208;2023-03-14T04:13:51;96917.56;;;7.53;100.00
7888;BME280;3989;48.810;9.208;2023-03-14T04:16:19;96838.19;;;7.06;100.00
7888;BME280;3989;48.810;9.208;2023-03-14T04:18:46;96831.88;;;7.07;100.00
7888;BME280;3989;48.810;9.208;2023-03-14T04:21:13;96939.63;;;7.67;100.00
7888;BME280;3989;48.810;9.208;2023-03-14T04:23:40;96940.03;;;7.64;100.00
7888;BME280;3989;48.810;9.208;2023-03-14T04:26:07;96946.97;;;7.65;100.00
7888;BME280;3989;48.810;9.208;2023-03-14T04:28:35;96850.44;;;7.13;100.00
7888;BME280;3989;48.810;9.208;2023-03-14T04:31:06;96936.16;;;7.60;100.00
7888;BME280;3989;48.810;9.208;2023-03-14T04:33:33;96904.94;;;7.42;100.00
7888;BME280;3989;48.810;9.208;2023-03-14T04:35:59;96909.41;;;7.42;100.00
7888;BME280;3989;48.810;9.208;2023-03-14T04:38:26;96929.22;;;7.59;100.00
7888;BME280;3989;48.810;9.208;2023-03-14T04:40:52;96920.63;;;7.57;100.00
7888;BME280;3989;48.810;9.208;2023-03-14T04:43:19;96917.38;;;7.48;100.00
7888;BME280;3989;48.810;9.208;2023-03-14T04:45:47;96923.69;;;7.54;100.00
7888;BME280;3989;48.810;9.208;2023-03-14T04:48:14;96914.91;;;7.53;100.00
7888;BME280;3989;48.810;9.208;2023-03-14T04:50:40;96879.63;;;7.26;100.00
7888;BME280;3989;48.810;9.208;2023-03-14T04:53:07;96910.00;;;7.50;100.00
7888;BME280;3989;48.810;9.208;2023-03-14T04:55:33;96905.13;;;7.47;100.00
7888;BME280;3989;48.810;9.208;2023-03-14T04:58:00;96909.00;;;7.45;100.00
7888;BME280;3989;48.810;9.208;2023-03-14T05:00:27;96905.53;;;7.44;100.00
7888;BME280;3989;48.810;9.208;2023-03-14T05:02:55;96898.78;;;7.42;100.00
7888;BME280;3989;48.810;9.208;2023-03-14T05:05:22;96910.00;;;7.37;100.00
7888;BME280;3989;48.810;9.208;2023-03-14T05:07:49;96899.81;;;7.34;100.00
7888;BME280;3989;48.810;9.208;2023-03-14T05:10:16;96888.41;;;7.27;100.00
7888;BME280;3989;48.810;9.208;2023-03-14T05:12:42;96885.53;;;7.22;100.00
7888;BME280;3989;48.810;9.208;2023-03-14T05:15:09;96824.72;;;6.88;100.00
7888;BME280;3989;48.810;9.208;2023-03-14T05:17:36;96866.34;;;7.20;100.00
7888;BME280;3989;48.810;9.208;2023-03-14T05:20:05;96882.06;;;7.28;100.00
7888;BME280;3989;48.810;9.208;2023-03-14T05:22:34;96890.22;;;7.26;100.00
7888;BME280;3989;48.810;9.208;2023-03-14T05:25:00;96885.13;;;7.25;100.00
7888;BME280;3989;48.810;9.208;2023-03-14T05:27:27;96754.94;;;6.41;100.00
7888;BME280;3989;48.810;9.208;2023-03-14T05:29:53;96883.47;;;7.24;100.00
7888;BME280;3989;48.810;9.208;2023-03-14T05:32:20;96832.69;;;6.94;100.00
7888;BME280;3989;48.810;9.208;2023-03-14T05:34:47;96868.59;;;7.10;100.00
7888;BME280;3989;48.810;9.208;2023-03-14T05:37:15;96841.84;;;7.05;100.00
7888;BME280;3989;48.810;9.208;2023-03-14T05:39:42;96840.41;;;7.02;100.00
7888;BME280;3989;48.810;9.208;2023-03-14T05:42:08;96844.50;;;7.24;100.00
7888;BME280;3989;48.810;9.208;2023-03-14T05:44:35;96822.28;;;7.06;100.00
7888;BME280;3989;48.810;9.208;2023-03-14T05:47:01;96860.63;;;7.23;100.00
7888;BME280;3989;48.810;9.208;2023-03-14T05:49:28;96813.69;;;6.84;100.00
7888;BME280;3989;48.810;9.208;2023-03-14T05:51:54;96849.81;;;7.05;100.00
7888;BME280;3989;48.810;9.208;2023-03-14T05:54:22;96861.66;;;7.22;100.00
7888;BME280;3989;48.810;9.208;2023-03-14T05:56:49;96772.28;;;6.76;100.00
7888;BME280;3989;48.810;9.208;2023-03-14T05:59:16;96863.28;;;7.36;100.00
7888;BME280;3989;48.810;9.208;2023-03-14T06:01:42;96777.19;;;6.79;100.00
7888;BME280;3989;48.810;9.208;2023-03-14T06:04:09;96856.53;;;7.53;100.00
7888;BME280;3989;48.810;9.208;2023-03-14T06:06:36;96803.28;;;7.09;100.00
7888;BME280;3989;48.810;9.208;2023-03-14T06:09:02;96861.81;;;7.60;100.00
7888;BME280;3989;48.810;9.208;2023-03-14T06:11:30;96870.81;;;7.59;100.00
7888;BME280;3989;48.810;9.208;2023-03-14T06:13:57;96696.06;;;6.46;100.00
7888;BME280;3989;48.810;9.208;2023-03-14T06:16:24;96845.91;;;7.40;100.00
7888;BME280;3989;48.810;9.208;2023-03-14T06:18:50;96867.53;;;7.63;100.00
7888;BME280;3989;48.810;9.208;2023-03-14T06:21:17;96819.19;;;7.42;100.00
7888;BME280;3989;48.810;9.208;2023-03-14T06:23:44;96869.75;;;7.73;100.00
7888;BME280;3989;48.810;9.208;2023-03-14T06:26:11;96857.94;;;7.69;100.00
7888;BME280;3989;48.810;9.208;2023-03-14T06:28:39;96855.28;;;7.69;100.00
7888;BME280;3989;48.810;9.208;2023-03-14T06:31:06;96854.66;;;7.67;100.00
7888;BME280;3989;48.810;9.208;2023-03-14T06:33:32;96841.41;;;7.54;100.00
7888;BME280;3989;48.810;9.208;2023-03-14T06:35:59;96858.16;;;7.67;100.00
7888;BME280;3989;48.810;9.208;2023-03-14T06:38:26;96851.00;;;7.68;100.00
7888;BME280;3989;48.810;9.208;2023-03-14T06:40:52;96830.78;;;7.54;100.00
7888;BME280;3989;48.810;9.208;2023-03-14T06:43:19;96841.41;;;7.67;100.00
7888;BME280;3989;48.810;9.208;2023-03-14T06:45:47;96838.16;;;7.65;100.00
7888;BME280;3989;48.810;9.208;2023-03-14T06:48:13;96738.81;;;7.08;100.00
7888;BME280;3989;48.810;9.208;2023-03-14T06:50:40;96832.84;;;7.65;100.00
7888;BME280;3989;48.810;9.208;2023-03-14T06:53:06;96732.09;;;7.06;100.00
7888;BME280;3989;48.810;9.208;2023-03-14T06:55:33;96802.44;;;7.54;100.00
7888;BME280;3989;48.810;9.208;2023-03-14T06:57:59;96837.47;;;7.82;100.00
7888;BME280;3989;48.810;9.208;2023-03-14T07:00:26;96842.75;;;7.96;100.00
7888;BME280;3989;48.810;9.208;2023-03-14T07:02:54;96845.59;;;8.07;100.00
7888;BME280;3989;48.810;9.208;2023-03-14T07:05:21;96841.28;;;8.13;100.00
7888;BME280;3989;48.810;9.208;2023-03-14T07:07:47;96768.91;;;7.66;100.00
7888;BME280;3989;48.810;9.208;2023-03-14T07:10:14;96798.88;;;7.80;100.00
7888;BME280;3989;48.810;9.208;2023-03-14T07:12:41;96804.56;;;7.90;100.00
7888;BME280;3989;48.810;9.208;2023-03-14T07:15:08;96806.63;;;7.95;100.00
7888;BME280;3989;48.810;9.208;2023-03-14T07:17:35;96758.69;;;7.70;100.00
7888;BME280;3989;48.810;9.208;2023-03-14T07:20:03;96790.25;;;7.98;100.00
7888;BME280;3989;48.810;9.208;2023-03-14T07:22:30;96858.66;;;8.60;100.00
7888;BME280;3989;48.810;9.208;2023-03-14T07:24:57;96805.84;;;8.25;100.00
7888;BME280;3989;48.810;9.208;2023-03-14T07:27:23;96830.66;;;8.57;100.00
7888;BME280;3989;48.810;9.208;2023-03-14T07:29:50;96843.78;;;8.83;100.00
7888;BME280;3989;48.810;9.208;2023-03-14T07:32:17;96762.19;;;8.53;100.00
7888;BME280;3989;48.810;9.208;2023-03-14T07:34:43;96814.72;;;8.88;100.00
7888;BME280;3989;48.810;9.208;2023-03-14T07:37:11;96813.84;;;8.94;100.00
7888;BME280;3989;48.810;9.208;2023-03-14T07:39:38;96854.97;;;9.23;100.00
7888;BME280;3989;48.810;9.208;2023-03-14T07:42:04;96861.69;;;9.26;100.00
7888;BME280;3989;48.810;9.208;2023-03-14T07:44:31;96852.13;;;9.18;100.00
7888;BME280;3989;48.810;9.208;2023-03-14T07:46:58;96866.47;;;9.42;100.00
7888;BME280;3989;48.810;9.208;2023-03-14T07:49:24;96853.81;;;9.62;100.00
7888;BME280;3989;48.810;9.208;2023-03-14T07:51:51;96815.16;;;9.35;100.00
7888;BME280;3989;48.810;9.208;2023-03-14T07:54:19;96849.25;;;9.69;100.00
7888;BME280;3989;48.810;9.208;2023-03-14T07:56:45;96861.94;;;9.67;100.00
7888;BME280;3989;48.810;9.208;2023-03-14T07:59:12;96858.44;;;9.48;100.00
7888;BME280;3989;48.810;9.208;2023-03-14T08:01:38;96842.63;;;9.29;100.00
7888;BME280;3989;48.810;9.208;2023-03-14T08:04:05;96832.44;;;9.26;100.00
7888;BME280;3989;48.810;9.208;2023-03-14T08:06:31;96845.84;;;9.37;100.00
7888;BME280;3989;48.810;9.208;2023-03-14T08:08:58;96779.59;;;9.05;100.00
7888;BME280;3989;48.810;9.208;2023-03-14T08:11:26;96848.63;;;9.49;100.00
7888;BME280;3989;48.810;9.208;2023-03-14T08:13:52;96845.72;;;9.50;100.00
7888;BME280;3989;48.810;9.208;2023-03-14T08:16:19;96843.72;;;9.46;100.00
7888;BME280;3989;48.810;9.208;2023-03-14T08:18:46;96680.03;;;8.44;100.00
7888;BME280;3989;48.810;9.208;2023-03-14T08:21:12;96853.53;;;9.70;100.00
7888;BME280;3989;48.810;9.208;2023-03-14T08:23:39;96847.56;;;9.93;100.00
7888;BME280;3989;48.810;9.208;2023-03-14T08:26:06;96838.47;;;10.19;100.00
7888;BME280;3989;48.810;9.208;2023-03-14T08:28:34;96844.41;;;10.39;100.00
7888;BME280;3989;48.810;9.208;2023-03-14T08:31:01;96837.16;;;10.58;100.00
7888;BME280;3989;48.810;9.208;2023-03-14T08:33:28;96774.94;;;10.34;100.00
7888;BME280;3989;48.810;9.208;2023-03-14T08:35:57;96809.22;;;10.90;100.00
7888;BME280;3989;48.810;9.208;2023-03-14T08:38:24;96817.28;;;11.25;100.00
7888;BME280;3989;48.810;9.208;2023-03-14T08:40:55;96834.75;;;11.74;100.00
7888;BME280;3989;48.810;9.208;2023-03-14T08:43:22;96840.22;;;11.79;100.00
7888;BME280;3989;48.810;9.208;2023-03-14T08:45:50;96856.94;;;11.86;100.00
7888;BME280;3989;48.810;9.208;2023-03-14T08:48:17;96722.69;;;11.21;100.00
7888;BME280;3989;48.810;9.208;2023-03-14T08:50:44;96825.22;;;12.01;100.00
7888;BME280;3989;48.810;9.208;2023-03-14T08:53:11;96823.06;;;12.26;100.00
7888;BME280;3989;48.810;9.208;2023-03-14T08:55:37;96853.13;;;12.73;100.00
7888;BME280;3989;48.810;9.208;2023-03-14T08:58:04;96832.34;;;12.92;100.00
7888;BME280;3989;48.810;9.208;2023-03-14T09:00:30;96854.59;;;13.37;100.00
7888;BME280;3989;48.810;9.208;2023-03-14T09:02:58;96863.53;;;13.76;100.00
7888;BME280;3989;48.810;9.208;2023-03-14T09:05:25;96874.22;;;13.93;95.72
7888;BME280;3989;48.810;9.208;2023-03-14T09:07:51;96880.22;;;14.00;97.56
7888;BME280;3989;48.810;9.208;2023-03-14T09:10:18;96881.41;;;14.09;91.49
7888;BME280;3989;48.810;9.208;2023-03-14T09:12:45;96885.66;;;14.22;85.93
7888;BME280;3989;48.810;9.208;2023-03-14T09:15:11;96881.97;;;14.28;85.43
7888;BME280;3989;48.810;9.208;2023-03-14T09:17:38;96894.41;;;14.34;81.84
7888;BME280;3989;48.810;9.208;2023-03-14T09:20:06;96878.69;;;13.87;87.12
7888;BME280;3989;48.810;9.208;2023-03-14T09:22:34;96922.38;;;14.21;90.59
7888;BME280;3989;48.810;9.208;2023-03-14T09:25:01;96925.06;;;14.21;92.49
7888;BME280;3989;48.810;9.208;2023-03-14T09:27:27;96879.56;;;14.09;88.24
7888;BME280;3989;48.810;9.208;2023-03-14T09:29:54;96927.97;;;14.75;86.35
7888;BME280;3989;48.810;9.208;2023-03-14T09:32:20;96928.75;;;14.97;85.01
7888;BME280;3989;48.810;9.208;2023-03-14T09:34:47;96920.41;;;15.20;78.66
7888;BME280;3989;48.810;9.208;2023-03-14T09:37:15;96858.09;;;14.69;80.84
7888;BME280;3989;48.810;9.208;2023-03-14T09:39:42;96929.09;;;15.27;80.01
7888;BME280;3989;48.810;9.208;2023-03-14T09:42:14;96940.59;;;14.96;81.01
7888;BME280;3989;48.810;9.208;2023-03-14T09:44:48;96924.13;;;14.70;79.30
7888;BME280;3989;48.810;9.208;2023-03-14T09:47:17;96931.31;;;14.87;81.20
7888;BME280;3989;48.810;9.208;2023-03-14T09:49:45;96946.31;;;15.04;77.89
7888;BME280;3989;48.810;9.208;2023-03-14T09:52:17;96942.00;;;14.60;79.90
7888;BME280;3989;48.810;9.208;2023-03-14T09:54:49;96958.63;;;14.57;84.57
7888;BME280;3989;48.810;9.208;2023-03-14T09:57:18;96966.16;;;14.60;82.81
7888;BME280;3989;48.810;9.208;2023-03-14T09:59:46;96950.19;;;14.70;80.68
7888;BME280;3989;48.810;9.208;2023-03-14T10:02:16;96943.06;;;14.81;80.37
7888;BME280;3989;48.810;9.208;2023-03-14T10:04:45;96935.97;;;14.69;79.17
7888;BME280;3989;48.810;9.208;2023-03-14T10:07:16;96930.81;;;14.46;82.09
7888;BME280;3989;48.810;9.208;2023-03-14T10:09:45;96950.91;;;14.10;83.93
7888;BME280;3989;48.810;9.208;2023-03-14T10:12:13;96936.22;;;13.96;86.35
7888;BME280;3989;48.810;9.208;2023-03-14T10:14:46;96873.94;;;13.56;89.58
7888;BME280;3989;48.810;9.208;2023-03-14T10:17:13;96912.50;;;13.88;87.65
7888;BME280;3989;48.810;9.208;2023-03-14T10:19:51;96914.25;;;13.99;90.28
7888;BME280;3989;48.810;9.208;2023-03-14T10:22:20;96916.66;;;13.79;86.56
7888;BME280;3989;48.810;9.208;2023-03-14T10:24:51;96906.66;;;13.75;85.12
7888;BME280;3989;48.810;9.208;2023-03-14T10:27:20;96899.00;;;14.00;86.28
7888;BME280;3989;48.810;9.208;2023-03-14T10:29:53;96897.06;;;14.72;79.25
7888;BME280;3989;48.810;9.208;2023-03-14T10:32:20;96884.31;;;15.11;69.06
7888;BME280;3989;48.810;9.208;2023-03-14T10:35:05;96886.94;;;15.33;67.42
7888;BME280;3989;48.810;9.208;2023-03-14T10:37:34;96896.78;;;14.95;66.09
7888;BME280;3989;48.810;9.208;2023-03-14T10:40:03;96914.59;;;14.80;70.79
7888;BME280;3989;48.810;9.208;2023-03-14T10:42:31;96903.28;;;14.78;72.93
7888;BME280;3989;48.810;9.208;2023-03-14T10:45:01;96906.88;;;15.10;70.51
7888;BME280;3989;48.810;9.208;2023-03-14T10:47:29;96904.44;;;15.35;65.40
7888;BME280;3989;48.810;9.208;2023-03-14T10:49:56;96913.00;;;15.54;64.47
7888;BME280;3989;48.810;9.208;2023-03-14T10:52:24;96909.94;;;15.18;64.53
7888;BME280;3989;48.810;9.208;2023-03-14T10:54:57;96906.94;;;14.93;66.53
7888;BME280;3989;48.810;9.208;2023-03-14T10:57:25;96921.38;;;14.87;68.60
7888;BME280;3989;48.810;9.208;2023-03-14T10:59:53;96917.16;;;14.69;70.44
7888;BME280;3989;48.810;9.208;2023-03-14T11:02:43;96927.97;;;14.75;70.79
7888;BME280;3989;48.810;9.208;2023-03-14T11:05:23;96942.56;;;14.62;74.30
7888;BME280;3989;48.810;9.208;2023-03-14T11:07:55;96945.13;;;14.35;75.57
7888;BME280;3989;48.810;9.208;2023-03-14T11:10:31;96939.59;;;14.25;78.00
7888;BME280;3989;48.810;9.208;2023-03-14T11:13:06;96950.19;;;14.15;81.26
7888;BME280;3989;48.810;9.208;2023-03-14T11:15:41;96951.81;;;14.16;83.15
7888;BME280;3989;48.810;9.208;2023-03-14T11:21:11;96964.16;;;14.17;87.84
7888;BME280;3989;48.810;9.208;2023-03-14T11:23:44;96940.03;;;13.67;94.44
7888;BME280;3989;48.810;9.208;2023-03-14T11:26:26;96968.63;;;12.93;100.00
7888;BME280;3989;48.810;9.208;2023-03-14T11:29:02;96911.91;;;11.82;100.00
7888;BME280;3989;48.810;9.208;2023-03-14T11:31:38;96980.38;;;11.53;100.00
7888;BME280;3989;48.810;9.208;2023-03-14T11:34:11;96970.28;;;11.25;100.00
7888;BME280;3989;48.810;9.208;2023-03-14T11:36:44;96973.41;;;11.22;100.00
7888;BME280;3989;48.810;9.208;2023-03-14T11:39:14;96968.88;;;11.23;100.00
7888;BME280;3989;48.810;9.208;2023-03-14T11:41:44;96975.41;;;11.27;100.00
7888;BME280;3989;48.810;9.208;2023-03-14T11:44:18;96947.06;;;11.26;100.00
7888;BME280;3989;48.810;9.208;2023-03-14T11:46:48;96968.47;;;11.37;100.00
7888;BME280;3989;48.810;9.208;2023-03-14T11:49:25;96976.06;;;11.64;100.00
7888;BME280;3989;48.810;9.208;2023-03-14T11:51:56;96982.69;;;11.79;100.00
7888;BME280;3989;48.810;9.208;2023-03-14T11:54:44;96988.38;;;12.06;100.00
7888;BME280;3989;48.810;9.208;2023-03-14T11:57:16;96998.88;;;12.07;100.00
7888;BME280;3989;48.810;9.208;2023-03-14T11:59:50;96996.50;;;11.99;100.00
7888;BME280;3989;48.810;9.208;2023-03-14T12:02:22;97007.09;;;11.65;100.00
7888;BME280;3989;48.810;9.208;2023-03-14T12:05:00;96930.84;;;10.97;100.00
7888;BME280;3989;48.810;9.208;2023-03-14T12:07:39;97008.00;;;11.47;100.00
7888;BME280;3989;48.810;9.208;2023-03-14T12:10:12;97020.78;;;11.86;100.00
7888;BME280;3989;48.810;9.208;2023-03-14T12:12:39;96961.63;;;11.83;100.00
7888;BME280;3989;48.810;9.208;2023-03-14T12:15:18;97035.25;;;12.55;100.00
7888;BME280;3989;48.810;9.208;2023-03-14T12:17:45;97035.16;;;12.50;100.00
7888;BME280;3989;48.810;9.208;2023-03-14T12:20:17;97036.31;;;12.31;100.00
7888;BME280;3989;48.810;9.208;2023-03-14T12:22:45;97045.34;;;12.06;100.00
7888;BME280;3989;48.810;9.208;2023-03-14T12:25:19;97071.03;;;11.66;100.00
7888;BME280;3989;48.810;9.208;2023-03-14T12:30:31;97079.09;;;11.78;100.00
7888;BME280;3989;48.810;9.208;2023-03-14T12:36:00;97099.94;;;12.40;100.00
7888;BME280;3989;48.810;9.208;2023-03-14T12:38:42;97124.38;;;12.55;100.00
7888;BME280;3989;48.810;9.208;2023-03-14T12:41:17;97133.19;;;12.33;98.44
7888;BME280;3989;48.810;9.208;2023-03-14T12:43:46;96976.81;;;11.29;94.23
7888;BME280;3989;48.810;9.208;2023-03-14T12:46:21;97176.03;;;11.85;90.35
7888;BME280;3989;48.810;9.208;2023-03-14T12:48:49;97187.91;;;11.71;86.15
7888;BME280;3989;48.810;9.208;2023-03-14T12:51:18;97166.91;;;11.38;84.74
7888;BME280;3989;48.810;9.208;2023-03-14T12:54:15;97194.22;;;11.40;72.87
7888;BME280;3989;48.810;9.208;2023-03-14T12:57:04;97170.97;;;11.22;65.59
7888;BME280;3989;48.810;9.208;2023-03-14T12:59:34;97168.63;;;11.14;68.32
7888;BME280;3989;48.810;9.208;2023-03-14T13:02:16;97248.75;;;11.50;65.54
7888;BME280;3989;48.810;9.208;2023-03-14T13:04:46;97238.56;;;11.41;59.33
7888;BME280;3989;48.810;9.208;2023-03-14T13:07:30;97250.44;;;11.27;59.14
7888;BME280;3989;48.810;9.208;2023-03-14T13:10:01;97254.31;;;11.31;59.48
7888;BME280;3989;48.810;9.208;2023-03-14T13:12:37;97272.41;;;11.04;59.41
7888;BME280;3989;48.810;9.208;2023-03-14T13:15:15;97298.00;;;11.12;61.15
7888;BME280;3989;48.810;9.208;2023-03-14T13:17:44;97277.78;;;11.22;59.07
7888;BME280;3989;48.810;9.208;2023-03-14T13:20:15;97304.09;;;11.43;58.97
7888;BME280;3989;48.810;9.208;2023-03-14T13:22:47;97330.75;;;11.50;57.23
7888;BME280;3989;48.810;9.208;2023-03-14T13:25:15;97329.38;;;11.41;53.29
7888;BME280;3989;48.810;9.208;2023-03-14T13:27:45;97334.78;;;11.34;52.98
7888;BME280;3989;48.810;9.208;2023-03-14T13:30:23;97335.28;;;11.25;51.36
7888;BME280;3989;48.810;9.208;2023-03-14T13:32:51;97332.69;;;11.12;51.38
7888;BME280;3989;48.810;9.208;2023-03-14T13:35:20;97302.41;;;10.99;51.08
7888;BME280;3989;48.810;9.208;2023-03-14T13:37:52;97352.72;;;11.27;51.63
7888;BME280;3989;48.810;9.208;2023-03-14T13:40:23;97377.84;;;11.69;50.68